Data for 04/10/2013

Time Sea-Level Adjusted Pressure Absolute Pressure Temperature Relative Humidity Dew Point   
(mb) (inHg) (mb) (inHg) (C) (F) (%) (C) (F)
00:05 1022 30.18 852 25.16 -6.1 20.9 67 -11.3 11.7
00:10 1022 30.18 852 25.16 -6.1 21.1 68 -11.1 12
00:15 1022 30.18 852 25.16 -6.1 21.1 68 -11 12.1
00:20 1022 30.18 852 25.16 -6.2 20.9 71 -10.7 12.8
00:25 1022 30.18 852 25.16 -6 21.2 70 -10.7 12.8
00:30 1022 30.18 851 25.13 -5.9 21.4 70 -10.5 13
00:35 1022 30.18 851 25.13 -6 21.2 69 -10.8 12.6
00:40 1022 30.18 851 25.13 -6.3 20.6 70 -10.9 12.3
00:45 1022 30.18 851 25.13 -6.4 20.4 69 -11.2 11.9
00:50 1022 30.18 851 25.13 -6.3 20.6 67 -11.5 11.3
00:55 1022 30.18 851 25.13 -6.1 20.9 67 -11.4 11.5
01:00 1022 30.18 851 25.13 -6.1 21 67 -11.3 11.7
01:05 1022 30.18 851 25.13 -6 21.1 68 -11.1 12
01:10 1022 30.18 851 25.13 -6.1 21 69 -10.8 12.6
01:15 1022 30.18 851 25.13 -6.2 20.9 70 -10.8 12.6
01:20 1022 30.18 851 25.13 -6.1 21 70 -10.8 12.6
01:25 1021 30.15 851 25.13 -6 21.2 69 -10.8 12.6
01:30 1021 30.15 850 25.1 -5.9 21.4 68 -10.9 12.5
01:35 1021 30.15 850 25.1 -5.8 21.6 66 -11.1 12.1
01:40 1021 30.15 850 25.1 -5.6 21.9 66 -11 12.2
01:45 1021 30.15 850 25.1 -5.6 22 64 -11.3 11.7
01:50 1021 30.15 850 25.1 -5.2 22.7 62 -11.3 11.6
01:55 1021 30.15 850 25.1 -5 22.9 62 -11.1 11.9
02:00 1021 30.15 850 25.1 -5.1 22.9 62 -11.2 11.8
02:05 1021 30.15 850 25.1 -4.9 23.1 63 -10.9 12.4
02:10 1021 30.15 850 25.1 -5.1 22.9 63 -11 12.2
02:15 1021 30.15 850 25.1 -5 23 63 -11.1 12.1
02:20 1021 30.15 850 25.1 -4.9 23.1 62 -11.1 12.1
02:25 1021 30.15 850 25.1 -4.9 23.2 63 -10.9 12.4
02:30 1021 30.15 850 25.1 -4.9 23.2 63 -10.8 12.5
02:35 1020 30.12 850 25.1 -4.8 23.3 64 -10.7 12.8
02:40 1020 30.12 850 25.1 -4.8 23.4 63 -10.7 12.7
02:45 1020 30.12 850 25.1 -4.7 23.6 63 -10.8 12.6
02:50 1021 30.15 850 25.1 -4.5 23.9 62 -10.8 12.5
02:55 1021 30.15 850 25.1 -4.4 24.1 59 -11.3 11.7
03:00 1021 30.15 850 25.1 -4.2 24.4 59 -11 12.2
03:05 1020 30.12 850 25.1 -4.2 24.4 59 -11 12.2
03:10 1020 30.12 850 25.1 -4.2 24.4 60 -10.8 12.6
03:15 1020 30.12 849 25.07 -4.2 24.5 60 -10.9 12.4
03:20 1020 30.12 849 25.07 -4.1 24.6 60 -10.7 12.8
03:25 1020 30.12 849 25.07 -4.1 24.7 60 -10.8 12.6
03:30 1020 30.12 849 25.07 -4.1 24.7 60 -10.6 12.9
03:35 1020 30.12 849 25.07 -4.1 24.7 61 -10.5 13
03:40 1020 30.12 849 25.07 -4 24.7 60 -10.6 12.9
03:45 1020 30.12 849 25.07 -3.9 24.9 59 -10.7 12.7
03:50 1020 30.12 849 25.07 -3.9 25 60 -10.5 13.1
03:55 1020 30.12 849 25.07 -3.9 24.9 61 -10.4 13.2
04:00 1020 30.12 849 25.07 -3.9 25 61 -10.4 13.3
04:05 1020 30.12 849 25.07 -3.9 25.1 63 -10 14.1
04:10 1020 30.12 849 25.07 -3.9 25 64 -9.7 14.6
04:15 1020 30.12 849 25.07 -3.9 24.9 65 -9.6 14.7
04:20 1020 30.12 849 25.07 -4 24.8 65 -9.6 14.7
04:25 1020 30.12 849 25.07 -4 24.9 65 -9.7 14.6
04:30 1020 30.12 849 25.07 -3.9 24.9 65 -9.5 14.9
04:35 1020 30.12 849 25.07 -3.9 24.9 65 -9.5 15
04:40 1020 30.12 849 25.07 -3.9 25 65 -9.5 14.9
04:45 1020 30.12 849 25.07 -3.9 25 66 -9.3 15.2
04:50 1020 30.12 849 25.07 -3.9 24.9 66 -9.3 15.2
04:55 1020 30.12 849 25.07 -3.9 25 66 -9.4 15.1
05:00 1020 30.12 849 25.07 -3.9 25 64 -9.6 14.7
05:05 1020 30.12 849 25.07 -3.8 25.2 63 -9.7 14.5
05:10 1020 30.12 849 25.07 -3.7 25.4 63 -9.8 14.4
05:15 1020 30.12 849 25.07 -3.6 25.5 64 -9.4 15
05:20 1020 30.12 849 25.07 -3.6 25.6 63 -9.7 14.6
05:25 1020 30.12 849 25.07 -3.6 25.6 62 -9.8 14.3
05:30 1020 30.12 849 25.07 -3.5 25.7 62 -9.7 14.5
05:35 1020 30.12 849 25.07 -3.6 25.6 64 -9.4 15.1
05:40 1020 30.12 849 25.07 -3.6 25.5 65 -9.3 15.2
05:45 1020 30.12 849 25.07 -3.6 25.5 65 -9.3 15.3
05:50 1020 30.12 849 25.07 -3.6 25.6 65 -9.2 15.5
05:55 1020 30.12 849 25.07 -3.5 25.7 66 -9 15.8
06:00 1020 30.12 849 25.07 -3.5 25.7 66 -9 15.7
06:05 1020 30.12 849 25.07 -3.5 25.8 65 -9.2 15.5
06:10 1020 30.12 849 25.07 -3.4 25.9 64 -9.2 15.5
06:15 1020 30.12 849 25.07 -3.3 26 64 -9.2 15.4
06:20 1020 30.12 849 25.07 -3.3 26 63 -9.3 15.3
06:25 1020 30.12 849 25.07 -3.3 26.1 64 -9.2 15.5
06:30 1020 30.12 849 25.07 -3.2 26.2 64 -9.1 15.5
06:35 1020 30.12 849 25.07 -3.2 26.3 64 -9 15.9
06:40 1020 30.12 849 25.07 -3.2 26.3 65 -8.8 16.2
06:45 1020 30.12 849 25.07 -3.2 26.3 66 -8.7 16.4
06:50 1020 30.12 849 25.07 -3.1 26.4 67 -8.4 16.9
06:55 1020 30.12 849 25.07 -3.1 26.5 67 -8.3 17
07:00 1020 30.12 849 25.07 -3 26.6 67 -8.2 17.3
07:05 1020 30.12 849 25.07 -2.9 26.7 66 -8.4 16.9
07:10 1020 30.12 849 25.07 -2.8 26.9 65 -8.5 16.8
07:15 1020 30.12 849 25.07 -2.8 27 66 -8.4 16.9
07:20 1020 30.12 849 25.07 -2.7 27.1 65 -8.4 16.9
07:25 1020 30.12 849 25.07 -2.7 27.2 63 -8.7 16.3
07:30 1020 30.12 849 25.07 -2.6 27.3 62 -8.8 16.1
07:35 1020 30.12 849 25.07 -2.5 27.6 62 -8.9 16
07:40 1020 30.12 849 25.07 -2.3 27.9 62 -8.7 16.3
07:45 1020 30.12 849 25.07 -2 28.3 60 -8.7 16.3
07:50 1020 30.12 849 25.07 -2.1 28.3 60 -8.9 16
07:55 1020 30.12 849 25.07 -2 28.4 58 -9.1 15.6
08:00 1020 30.12 849 25.07 -2 28.4 58 -9.1 15.5
08:05 1020 30.12 849 25.07 -1.8 28.8 57 -9.2 15.4
08:10 1020 30.12 849 25.07 -1.7 29 57 -9 15.8
08:15 1020 30.12 849 25.07 -1.7 29 58 -8.9 15.9
08:20 1020 30.12 849 25.07 -1.8 28.8 59 -8.8 16.2
08:25 1020 30.12 849 25.07 -1.7 28.9 58 -9 15.8
08:30 1020 30.12 849 25.07 -1.6 29.1 58 -8.9 15.9
08:35 1020 30.12 849 25.07 -1.5 29.3 57 -8.9 15.9
08:40 1020 30.12 849 25.07 -1.4 29.4 58 -8.6 16.4
08:45 1020 30.12 849 25.07 -1.3 29.7 57 -8.6 16.4
08:50 1020 30.12 849 25.07 -1 30.3 56 -8.6 16.4
08:55 1020 30.12 849 25.07 -0.7 30.8 56 -8.5 16.7
09:00 1020 30.12 849 25.07 -0.5 31.1 55 -8.4 16.9
09:05 1020 30.12 849 25.07 -0.2 31.6 55 -8.3 17.1
09:10 1020 30.12 849 25.07 0 32.1 54 -8.1 17.3
09:15 1020 30.12 849 25.07 -0 31.9 56 -7.9 17.8
09:20 1020 30.12 849 25.07 0.1 32.2 56 -7.8 18
09:25 1020 30.12 849 25.07 0.3 32.6 55 -7.7 18.2
09:30 1019 30.09 849 25.07 0.6 33.1 54 -7.6 18.3
09:35 1019 30.09 849 25.07 0.8 33.4 54 -7.6 18.3
09:40 1019 30.09 849 25.07 1 33.7 53 -7.7 18.2
09:45 1019 30.09 849 25.07 1.1 34.1 52 -7.7 18.1
09:50 1019 30.09 849 25.07 1.4 34.6 51 -7.5 18.5
09:55 1019 30.09 849 25.07 1.7 35 50 -7.7 18.2
10:00 1019 30.09 849 25.07 1.8 35.3 50 -7.6 18.4
10:05 1019 30.09 849 25.07 2.1 35.8 50 -7.3 18.9
10:10 1019 30.09 848 25.04 2.4 36.3 49 -7.2 19.1
10:15 1019 30.09 848 25.04 2.7 36.8 49 -6.9 19.5
10:20 1019 30.09 848 25.04 2.8 37 50 -6.7 20
10:25 1019 30.09 848 25.04 3 37.4 49 -6.7 19.9
10:30 1019 30.09 848 25.04 3.3 38 47 -6.8 19.7
10:35 1019 30.09 848 25.04 3.5 38.4 48 -6.5 20.3
10:40 1019 30.09 848 25.04 3.9 39 45 -6.9 19.6
10:45 1019 30.09 848 25.04 4.1 39.3 45 -6.7 19.9
10:50 1019 30.09 848 25.04 4.3 39.8 45 -6.7 20
10:55 1019 30.09 848 25.04 4.9 40.8 43 -6.6 20
11:00 1019 30.09 848 25.04 5.2 41.4 42 -6.8 19.7
11:05 1019 30.09 848 25.04 5.2 41.4 42 -6.6 20.1
11:10 1018 30.06 848 25.04 5.1 41.2 42 -6.8 19.7
11:15 1018 30.06 848 25.04 5.1 41.1 41 -7 19.4
11:20 1018 30.06 848 25.04 5.3 41.5 43 -6.3 20.6
11:25 1018 30.06 848 25.04 5.7 42.2 42 -6.4 20.5
11:30 1018 30.06 847 25.01 5.2 41.4 42 -6.7 20
11:35 1018 30.06 847 25.01 5.5 41.8 42 -6.3 20.7
11:40 1018 30.06 847 25.01 5.6 42 42 -6.3 20.6
11:45 1018 30.06 847 25.01 5.9 42.6 41 -6.3 20.6
11:50 1018 30.06 847 25.01 5.9 42.5 42 -6.1 21.1
11:55 1018 30.06 847 25.01 5.9 42.7 41 -6.2 20.9
12:00 1018 30.06 847 25.01 6.2 43.1 43 -5.6 22
12:05 1017 30.03 847 25.01 6.1 42.9 42 -6 21.2
12:10 1017 30.03 846 24.98 6.9 44.3 40 -5.7 21.8
12:15 1017 30.03 846 24.98 7.5 45.5 39 -5.6 21.9
12:20 1017 30.03 846 24.98 7.8 46 37 -5.9 21.4
12:25 1017 30.03 846 24.98 8.2 46.8 37 -5.5 22.1
12:30 1017 30.03 846 24.98 7.9 46.3 38 -5.5 22.1
12:35 1017 30.03 846 24.98 7.6 45.6 41 -4.7 23.6
12:40 1017 30.03 846 24.98 7.4 45.4 40 -5.2 22.6
12:45 1017 30.03 846 24.98 8.1 46.6 37 -5.7 21.7
12:50 1016 30 846 24.98 8.7 47.7 36 -5.4 22.3
12:55 1016 30 846 24.98 8.8 47.8 37 -5.1 22.8
13:00 1016 30 846 24.98 9.5 49.1 35 -5.3 22.5
13:05 1016 30 846 24.98 8.8 47.8 37 -5.3 22.5
13:10 1016 30 846 24.98 8.9 48.1 36 -5.5 22.1
13:15 1016 30 845 24.95 9.1 48.4 36 -5.2 22.7
13:20 1016 30 845 24.95 9.1 48.4 36 -5.1 22.8
13:25 1016 30 845 24.95 9.9 49.8 34 -5.1 22.8
13:30 1016 30 845 24.95 9 48.2 37 -4.8 23.3
13:35 1016 30 845 24.95 9.7 49.4 36 -4.7 23.5
13:40 1015 29.97 845 24.95 10.3 50.5 34 -4.8 23.3
13:45 1015 29.97 845 24.95 10.8 51.4 35 -4.1 24.7
13:50 1015 29.97 844 24.92 10.2 50.4 35 -4.6 23.7
13:55 1015 29.97 844 24.92 10.2 50.3 36 -4.2 24.4
14:00 1015 29.97 844 24.92 11 51.7 34 -4.2 24.5
14:05 1015 29.97 844 24.92 11.2 52.1 34 -4.3 24.3
14:10 1015 29.97 844 24.92 11.1 51.9 36 -3.4 25.8
14:15 1015 29.97 844 24.92 10.7 51.3 35 -3.9 25
14:20 1015 29.97 844 24.92 11 51.9 37 -3.2 26.3
14:25 1015 29.97 844 24.92 11.5 52.7 34 -3.9 24.9
14:30 1015 29.97 844 24.92 11.7 53.1 33 -4.2 24.5
14:35 1015 29.97 844 24.92 11.6 52.9 33 -4.2 24.4
14:40 1015 29.97 844 24.92 12.3 54.1 32 -3.9 25
14:45 1014 29.94 844 24.92 12.7 54.8 31 -3.8 25.2
14:50 1014 29.94 844 24.92 12.8 55 31 -4 24.8
14:55 1014 29.94 843 24.89 12.8 55 31 -4.1 24.7
15:00 1014 29.94 843 24.89 12.6 54.7 31 -3.8 25.1
15:05 1014 29.94 843 24.89 12.3 54.1 32 -4.1 24.6
15:10 1014 29.94 843 24.89 11.9 53.4 33 -4 24.9
15:15 1014 29.94 843 24.89 12 53.7 32 -4.3 24.2
15:20 1013 29.91 843 24.89 12 53.6 32 -4.4 24.1
15:25 1013 29.91 843 24.89 12.3 54.1 31 -4.4 24.2
15:30 1013 29.91 843 24.89 12.7 54.8 31 -4.1 24.7
15:35 1013 29.91 842 24.86 12.8 55.1 30 -4.2 24.4
15:40 1013 29.91 842 24.86 13 55.4 30 -4.2 24.4
15:45 1013 29.91 842 24.86 12.8 55.1 30 -4.2 24.4
15:50 1013 29.91 842 24.86 12.9 55.2 30 -4.3 24.2
15:55 1013 29.91 842 24.86 12.3 54.2 31 -4.4 24.1
16:00 1013 29.91 842 24.86 12 53.6 31 -4.4 24.1
16:05 1013 29.91 842 24.86 12.1 53.8 32 -4.2 24.5
16:10 1013 29.91 842 24.86 12.1 53.8 31 -4.4 24.1
16:15 1013 29.91 842 24.86 12.1 53.7 31 -4.4 24.2
16:20 1013 29.91 842 24.86 12 53.6 31 -4.4 24
16:25 1013 29.91 842 24.86 12 53.6 31 -4.4 24
16:30 1013 29.91 842 24.86 11.9 53.3 32 -4.3 24.3
16:35 1012 29.88 842 24.86 12.1 53.7 31 -4.4 24
16:40 1012 29.88 842 24.86 12.6 54.7 31 -4.2 24.4
16:45 1012 29.88 842 24.86 12.7 54.9 31 -4.1 24.6
16:50 1012 29.88 842 24.86 12.9 55.3 30 -4 24.8
16:55 1012 29.88 841 24.83 12.9 55.2 31 -3.8 25.2
17:00 1012 29.88 841 24.83 12.5 54.5 32 -3.8 25.2
17:05 1012 29.88 841 24.83 12.2 54 32 -4 24.9
17:10 1012 29.88 841 24.83 12.2 53.9 33 -3.8 25.2
17:15 1012 29.88 841 24.83 12.1 53.7 32 -3.9 24.9
17:20 1012 29.88 841 24.83 11.9 53.4 33 -3.6 25.4
17:25 1012 29.88 841 24.83 11.9 53.5 33 -3.8 25.2
17:30 1012 29.88 841 24.83 12 53.5 34 -3.5 25.7
17:35 1012 29.88 841 24.83 11.9 53.4 34 -3.5 25.6
17:40 1011 29.85 841 24.83 12 53.6 34 -3.4 25.8
17:45 1011 29.85 841 24.83 11.9 53.4 35 -3 26.5
17:50 1011 29.85 841 24.83 11.8 53.3 36 -2.8 26.9
17:55 1011 29.85 840 24.81 11.8 53.2 35 -3 26.5
18:00 1011 29.85 840 24.81 11.7 53.1 35 -3 26.5
18:05 1011 29.85 840 24.81 11.7 53 37 -2.6 27.3
18:10 1011 29.85 840 24.81 11.7 53 36 -2.7 27.2
18:15 1011 29.85 840 24.81 11.6 52.8 37 -2.8 27
18:20 1011 29.85 840 24.81 11.5 52.7 36 -2.9 26.9
18:25 1011 29.85 840 24.81 11.5 52.7 37 -2.8 26.9
18:30 1011 29.85 840 24.81 11.3 52.4 40 -1.8 28.7
18:35 1011 29.85 840 24.81 11 51.9 40 -2 28.5
18:40 1011 29.85 840 24.81 11.1 51.9 39 -2.2 28
18:45 1011 29.85 840 24.81 11.1 52 39 -2.2 28.1
18:50 1011 29.85 840 24.81 11 51.9 40 -2 28.4
18:55 1011 29.85 840 24.81 10.7 51.3 42 -1.7 29
19:00 1011 29.85 840 24.81 10.6 51.1 42 -1.9 28.6
19:05 1011 29.85 840 24.81 10.7 51.3 41 -2.1 28.3
19:10 1010 29.83 840 24.81 10.7 51.3 41 -2 28.5
19:15 1010 29.83 839 24.78 10.6 51 43 -1.4 29.4
19:20 1010 29.83 839 24.78 10.3 50.6 42 -1.9 28.7
19:25 1010 29.83 839 24.78 10.5 50.8 40 -2.5 27.6
19:30 1010 29.83 839 24.78 10.7 51.2 39 -2.7 27.2
19:35 1010 29.83 839 24.78 10.7 51.3 39 -2.7 27.2
19:40 1010 29.83 839 24.78 10.7 51.3 39 -2.7 27.1
19:45 1010 29.83 839 24.78 10.7 51.2 39 -2.7 27.2
19:50 1010 29.83 839 24.78 10.6 51.2 39 -2.6 27.3
19:55 1010 29.83 839 24.78 10.6 51 39 -2.6 27.3
20:00 1010 29.83 840 24.81 10.5 50.9 40 -2.6 27.3
20:05 1011 29.85 840 24.81 10.5 50.9 40 -2.5 27.5
20:10 1011 29.85 840 24.81 10.4 50.7 41 -2.3 27.9
20:15 1011 29.85 840 24.81 10.3 50.5 42 -2.2 28.1
20:20 1010 29.83 840 24.81 10.2 50.4 42 -2 28.4
20:25 1011 29.85 840 24.81 10.2 50.3 43 -1.9 28.5
20:30 1011 29.85 840 24.81 10.1 50.1 43 -1.9 28.5
20:35 1011 29.85 840 24.81 10 50 43 -1.9 28.5
20:40 1011 29.85 840 24.81 9.9 49.9 43 -2 28.3
20:45 1011 29.85 840 24.81 9.9 49.7 44 -1.9 28.5
20:50 1011 29.85 840 24.81 9.8 49.6 45 -1.7 29
20:55 1011 29.85 840 24.81 9.8 49.6 45 -1.7 29
21:00 1011 29.85 840 24.81 9.8 49.6 46 -1.4 29.5
21:05 1011 29.85 840 24.81 9.7 49.5 47 -1.2 29.9
21:10 1011 29.85 840 24.81 9.7 49.4 48 -0.7 30.7
21:15 1011 29.85 841 24.83 9.6 49.3 51 -0.1 31.8
21:20 1011 29.85 841 24.83 9.3 48.7 55 0.8 33.4
21:25 1012 29.88 841 24.83 8.7 47.6 59 1.3 34.3
21:30 1012 29.88 841 24.83 8.3 46.9 62 1.4 34.4
21:35 1012 29.88 841 24.83 7.9 46.2 69 2.5 36.4
21:40 1012 29.88 841 24.83 7 44.7 77 3.3 38
21:45 1012 29.88 842 24.86 6.3 43.3 82 3.4 38.1
21:50 1012 29.88 842 24.86 5.9 42.6 82 3.1 37.5
21:55 1012 29.88 841 24.83 5.7 42.3 83 3 37.4
22:00 1012 29.88 842 24.86 5.7 42.3 82 2.9 37.2
22:05 1012 29.88 842 24.86 5.8 42.4 83 3 37.4
22:10 1012 29.88 842 24.86 5.8 42.4 82 3 37.4
22:15 1013 29.91 842 24.86 5.8 42.5 82 3.1 37.6
22:20 1013 29.91 842 24.86 5.8 42.4 82 2.9 37.3
22:25 1013 29.91 842 24.86 5.9 42.7 78 2.5 36.4
22:30 1013 29.91 842 24.86 6 42.8 81 3 37.4
22:35 1013 29.91 842 24.86 5.9 42.6 83 3.1 37.6
22:40 1012 29.88 842 24.86 5.8 42.4 82 3 37.4
22:45 1012 29.88 842 24.86 5.8 42.5 79 2.5 36.5
22:50 1013 29.91 842 24.86 5.8 42.5 78 2.2 36
22:55 1013 29.91 842 24.86 5.8 42.5 75 1.7 35.1
23:00 1013 29.91 842 24.86 5.6 42.1 77 1.8 35.3
23:05 1013 29.91 842 24.86 5.4 41.7 77 1.6 35
23:10 1013 29.91 842 24.86 5.1 41.2 80 2 35.7
23:15 1013 29.91 842 24.86 4.9 40.9 80 1.8 35.2
23:20 1013 29.91 842 24.86 5.2 41.4 75 1.1 34
23:25 1013 29.91 842 24.86 5.7 42.2 72 1 33.8
23:30 1013 29.91 842 24.86 5.7 42.3 72 1.1 33.9
23:35 1013 29.91 842 24.86 5.7 42.2 71 0.9 33.6
23:40 1013 29.91 842 24.86 5.5 41.9 71 0.7 33.3
23:45 1013 29.91 842 24.86 5.4 41.8 70 0.5 32.8
23:50 1013 29.91 842 24.86 5.4 41.8 71 0.6 33
23:55 1013 29.91 842 24.86 5.5 41.8 71 0.6 33.2
24:00 1013 29.91 842 24.86 5.4 41.6 72 0.8 33.4